createdAt,value
2018-09-03T00:00:08.051Z,52.40
2018-09-03T00:01:08.092Z,52.10
2018-09-03T00:02:08.132Z,51.90
2018-09-03T00:03:08.180Z,51.10
2018-09-03T00:04:08.211Z,54.00
2018-09-03T00:05:08.250Z,50.80
2018-09-03T00:06:08.289Z,53.00
2018-09-03T00:07:08.329Z,53.80
2018-09-03T00:08:08.369Z,50.10
2018-09-03T00:09:08.411Z,52.90
2018-09-03T00:10:08.448Z,51.70
2018-09-03T00:11:08.487Z,50.90
2018-09-03T00:12:08.526Z,54.90
2018-09-03T00:13:08.575Z,55.60
2018-09-03T00:14:08.606Z,54.20
2018-09-03T00:15:08.646Z,55.20
2018-09-03T00:16:08.688Z,51.70
2018-09-03T00:17:08.725Z,48.10
2018-09-03T00:18:08.763Z,51.00
2018-09-03T00:19:08.804Z,53.60
2018-09-03T00:20:08.844Z,52.10
2018-09-03T00:21:08.882Z,45.70
2018-09-03T00:22:08.924Z,50.80
2018-09-03T00:23:08.961Z,47.30
2018-09-03T00:24:09.003Z,45.10
2018-09-03T00:25:09.041Z,44.00
2018-09-03T00:26:09.081Z,42.30
2018-09-03T00:27:09.120Z,46.80
2018-09-03T00:28:09.166Z,41.10
2018-09-03T00:29:09.199Z,42.90
2018-09-03T00:30:09.243Z,40.00
2018-09-03T00:31:09.280Z,39.80
2018-09-03T00:32:09.318Z,41.40
2018-09-03T00:33:09.358Z,38.30
2018-09-03T00:34:09.397Z,41.20
2018-09-03T00:35:09.436Z,41.10
2018-09-03T00:36:09.475Z,39.10
2018-09-03T00:37:09.521Z,43.50
2018-09-03T00:38:09.557Z,42.70
2018-09-03T00:39:09.608Z,44.80
2018-09-03T00:40:09.635Z,42.40
2018-09-03T00:41:09.681Z,43.10
2018-09-03T00:42:09.713Z,41.00
2018-09-03T00:43:09.854Z,44.40
2018-09-03T00:44:09.793Z,44.60
2018-09-03T00:45:09.833Z,41.00
2018-09-03T00:46:09.871Z,43.20
2018-09-03T00:47:09.911Z,43.60
2018-09-03T00:48:09.950Z,40.00
2018-09-03T00:49:09.995Z,39.20
2018-09-03T00:50:10.031Z,44.40
2018-09-03T00:51:10.071Z,41.00
2018-09-03T00:52:10.108Z,41.20
2018-09-03T00:53:10.149Z,44.30
2018-09-03T00:54:10.202Z,39.30
2018-09-03T00:55:10.227Z,37.40
2018-09-03T00:56:10.265Z,41.50
2018-09-03T00:57:10.306Z,42.00
2018-09-03T00:58:10.347Z,38.80
2018-09-03T00:59:10.386Z,43.90
2018-09-03T01:00:10.426Z,38.90
2018-09-03T01:01:10.465Z,40.30
2018-09-03T01:02:10.509Z,39.10
2018-09-03T01:03:10.545Z,39.30
2018-09-03T01:04:10.584Z,39.80
2018-09-03T01:05:10.631Z,37.90
2018-09-03T01:06:10.662Z,38.50
2018-09-03T01:07:10.703Z,40.40
2018-09-03T01:08:10.741Z,41.90
2018-09-03T01:09:10.782Z,36.00
2018-09-03T01:10:10.821Z,41.90
2018-09-03T01:11:10.862Z,40.50
2018-09-03T01:12:10.901Z,40.10
2018-09-03T01:13:10.942Z,41.90
2018-09-03T01:14:10.981Z,40.30
2018-09-03T01:15:11.019Z,39.10
2018-09-03T01:16:11.057Z,38.30
2018-09-03T01:17:11.097Z,42.30
2018-09-03T01:18:11.140Z,40.80
2018-09-03T01:19:11.178Z,41.50
2018-09-03T01:20:11.217Z,39.40
2018-09-03T01:21:11.257Z,38.00
2018-09-03T01:22:11.299Z,44.40
2018-09-03T01:23:11.338Z,40.10
2018-09-03T01:24:11.375Z,39.80
2018-09-03T01:25:11.414Z,38.70
2018-09-03T01:26:11.456Z,39.20
2018-09-03T01:27:11.495Z,42.60
2018-09-03T01:28:11.532Z,42.20
2018-09-03T01:29:11.572Z,40.40
2018-09-03T01:30:11.614Z,39.30
2018-09-03T01:31:11.653Z,38.40
2018-09-03T01:32:11.691Z,38.40
2018-09-03T01:33:11.730Z,42.00
2018-09-03T01:34:11.771Z,42.20
2018-09-03T01:35:11.812Z,40.90
2018-09-03T01:36:11.850Z,43.60
2018-09-03T01:37:11.889Z,40.20
2018-09-03T01:38:11.937Z,43.10
2018-09-03T01:39:11.972Z,39.60
2018-09-03T01:40:12.008Z,36.50
2018-09-03T01:41:12.057Z,39.80
2018-09-03T01:42:12.088Z,37.80
2018-09-03T01:43:12.128Z,38.90
2018-09-03T01:44:12.167Z,37.60
2018-09-03T01:45:12.205Z,42.40
2018-09-03T01:46:12.246Z,42.90
2018-09-03T01:47:12.286Z,38.70
2018-09-03T01:48:12.324Z,37.20
2018-09-03T01:49:12.364Z,40.60
2018-09-03T01:50:12.403Z,40.90
2018-09-03T01:51:12.443Z,42.30
2018-09-03T01:52:12.481Z,39.20
2018-09-03T01:53:12.522Z,41.40
2018-09-03T01:54:12.563Z,40.70
2018-09-03T01:55:12.617Z,43.70
2018-09-03T01:56:12.741Z,44.10
2018-09-03T01:57:12.682Z,43.40
2018-09-03T01:58:12.725Z,46.90
2018-09-03T01:59:12.762Z,43.60
2018-09-03T02:00:12.799Z,46.00
2018-09-03T02:01:12.841Z,48.00
2018-09-03T02:02:12.883Z,54.20
2018-09-03T02:03:12.921Z,57.80
2018-09-03T02:04:12.959Z,53.40
2018-09-03T02:05:12.998Z,56.80
2018-09-03T02:06:13.044Z,62.00
2018-09-03T02:07:13.080Z,61.30
2018-09-03T02:08:13.116Z,59.80
2018-09-03T02:09:13.157Z,60.90
2018-09-03T02:10:13.197Z,63.60
2018-09-03T02:11:13.235Z,61.60
2018-09-03T02:12:13.278Z,66.00
2018-09-03T02:13:13.316Z,70.10
2018-09-03T02:14:13.354Z,68.60
2018-09-03T02:15:13.394Z,72.10
2018-09-03T02:16:13.433Z,65.80
2018-09-03T02:17:13.474Z,77.00
2018-09-03T02:18:13.511Z,83.90
2018-09-03T02:19:13.551Z,78.00
2018-09-03T02:20:13.590Z,82.80
2018-09-03T02:21:13.631Z,76.70
2018-09-03T02:22:13.670Z,75.30
2018-09-03T02:23:13.709Z,78.30
2018-09-03T02:24:13.747Z,89.10
2018-09-03T02:25:13.786Z,81.50
2018-09-03T02:26:13.827Z,83.20
2018-09-03T02:27:13.967Z,82.70
2018-09-03T02:28:13.905Z,78.80
2018-09-03T02:29:13.947Z,86.10
2018-09-03T02:30:13.985Z,73.20
2018-09-03T02:31:14.027Z,86.20
2018-09-03T02:32:14.061Z,80.60
2018-09-03T02:33:14.102Z,72.30
2018-09-03T02:34:14.145Z,81.40
2018-09-03T02:35:14.182Z,73.90
2018-09-03T02:36:14.219Z,81.80
2018-09-03T02:37:14.259Z,72.50
2018-09-03T02:38:14.300Z,82.80
2018-09-03T02:39:14.338Z,78.70
2018-09-03T02:40:14.378Z,81.40
2018-09-03T02:41:14.415Z,77.10
2018-09-03T02:42:14.455Z,75.60
2018-09-03T02:43:14.495Z,79.40
2018-09-03T02:44:14.533Z,78.60
2018-09-03T02:45:14.572Z,79.20
2018-09-03T02:46:14.612Z,78.10
2018-09-03T02:47:14.656Z,87.10
2018-09-03T02:48:14.701Z,84.00
2018-09-03T02:49:14.731Z,82.00
2018-09-03T02:50:14.768Z,73.60
2018-09-03T02:51:14.806Z,71.00
2018-09-03T02:52:14.848Z,72.80
2018-09-03T02:53:14.884Z,81.20
2018-09-03T02:54:14.927Z,86.50
2018-09-03T02:55:14.964Z,88.00
2018-09-03T02:56:15.002Z,80.40
2018-09-03T02:57:15.044Z,82.90
2018-09-03T02:58:15.080Z,77.90
2018-09-03T02:59:15.120Z,76.50
2018-09-03T03:00:15.159Z,81.50
2018-09-03T03:01:15.199Z,79.90
2018-09-03T03:02:15.238Z,79.90
2018-09-03T03:03:15.279Z,80.20
2018-09-03T03:04:15.316Z,75.70
2018-09-03T03:05:15.356Z,77.70
2018-09-03T03:06:15.396Z,77.70
2018-09-03T03:07:15.436Z,71.10
2018-09-03T03:08:15.474Z,81.30
2018-09-03T03:09:15.512Z,86.40
2018-09-03T03:10:15.560Z,77.90
2018-09-03T03:11:15.594Z,75.80
2018-09-03T03:12:15.630Z,81.10
2018-09-03T03:13:15.681Z,90.60
2018-09-03T03:14:15.807Z,80.60
2018-09-03T03:15:15.748Z,82.40
2018-09-03T03:16:15.794Z,84.20
2018-09-03T03:17:15.824Z,83.70
2018-09-03T03:18:15.865Z,80.30
2018-09-03T03:19:15.903Z,88.50
2018-09-03T03:20:15.941Z,74.90
2018-09-03T03:21:15.982Z,86.90
2018-09-03T03:22:16.021Z,84.90
2018-09-03T03:23:16.060Z,86.00
2018-09-03T03:24:16.099Z,88.70
2018-09-03T03:25:16.139Z,90.10
2018-09-03T03:26:16.178Z,86.10
2018-09-03T03:27:16.218Z,89.40
2018-09-03T03:28:16.255Z,100.10
2018-09-03T03:29:16.297Z,90.10
2018-09-03T03:30:16.333Z,86.00
2018-09-03T03:31:16.375Z,92.20
2018-09-03T03:32:16.412Z,89.20
2018-09-03T03:33:16.514Z,95.10
2018-09-03T03:34:16.489Z,92.20
2018-09-03T03:35:16.530Z,84.50
2018-09-03T03:36:16.567Z,80.10
2018-09-03T03:37:16.608Z,85.20
2018-09-03T03:38:16.647Z,94.80
2018-09-03T03:39:16.685Z,94.80
2018-09-03T03:40:16.725Z,87.60
2018-09-03T03:41:16.764Z,90.90
2018-09-03T03:42:16.802Z,90.00
2018-09-03T03:43:16.843Z,92.80
2018-09-03T03:44:16.882Z,89.10
2018-09-03T03:45:16.919Z,89.20
2018-09-03T03:46:16.966Z,76.50
2018-09-03T03:47:17.000Z,77.00
2018-09-03T03:48:17.036Z,76.60
2018-09-03T03:49:17.074Z,72.90
2018-09-03T03:50:17.114Z,78.80
2018-09-03T03:51:17.152Z,84.10
2018-09-03T03:52:17.209Z,80.60
2018-09-03T03:53:17.232Z,92.20
2018-09-03T03:54:17.271Z,77.90
2018-09-03T03:55:17.401Z,77.50
2018-09-03T03:56:17.350Z,73.30
2018-09-03T03:57:17.386Z,73.90
2018-09-03T03:58:17.425Z,71.90
2018-09-03T03:59:17.464Z,86.30
2018-09-03T04:00:17.503Z,79.30
2018-09-03T04:01:17.543Z,75.40
2018-09-03T04:02:17.581Z,71.00
2018-09-03T04:03:17.620Z,76.80
2018-09-03T04:04:17.658Z,75.90
2018-09-03T04:05:17.698Z,77.90
2018-09-03T04:06:17.738Z,71.70
2018-09-03T04:07:17.786Z,71.70
2018-09-03T04:08:17.816Z,75.10
2018-09-03T04:09:17.857Z,78.10
2018-09-03T04:10:17.894Z,79.10
2018-09-03T04:11:17.934Z,79.20
2018-09-03T04:12:17.971Z,72.60
2018-09-03T04:13:18.012Z,72.40
2018-09-03T04:14:18.051Z,79.70
2018-09-03T04:15:18.089Z,71.40
2018-09-03T04:16:18.129Z,72.50
2018-09-03T04:17:18.166Z,71.50
2018-09-03T04:18:18.205Z,75.30
2018-09-03T04:19:18.245Z,66.80
2018-09-03T04:20:18.283Z,72.50
2018-09-03T04:21:18.322Z,72.20
2018-09-03T04:22:18.362Z,70.90
2018-09-03T04:23:18.513Z,68.50
2018-09-03T04:24:18.439Z,74.90
2018-09-03T04:25:18.486Z,69.60
2018-09-03T04:26:18.518Z,71.20
2018-09-03T04:27:18.558Z,72.30
2018-09-03T04:28:18.597Z,72.20
2018-09-03T04:29:18.634Z,74.90
2018-09-03T04:30:18.674Z,72.00
2018-09-03T04:31:18.714Z,70.50
2018-09-03T04:32:18.751Z,67.20
2018-09-03T04:33:18.792Z,68.00
2018-09-03T04:34:18.828Z,71.20
2018-09-03T04:35:18.870Z,65.30
2018-09-03T04:36:18.909Z,72.90
2018-09-03T04:37:18.947Z,67.80
2018-09-03T04:38:18.989Z,67.60
2018-09-03T04:39:19.027Z,65.70
2018-09-03T04:40:19.064Z,67.30
2018-09-03T04:41:19.103Z,71.80
2018-09-03T04:42:19.142Z,67.00
2018-09-03T04:43:19.183Z,72.10
2018-09-03T04:44:19.221Z,68.30
2018-09-03T04:45:19.261Z,68.90
2018-09-03T04:46:19.298Z,71.90
2018-09-03T04:47:19.345Z,69.20
2018-09-03T04:48:19.377Z,65.30
2018-09-03T04:49:19.415Z,73.60
2018-09-03T04:50:19.458Z,66.10
2018-09-03T04:51:19.495Z,69.30
2018-09-03T04:52:19.539Z,65.10
2018-09-03T04:53:19.575Z,64.80
2018-09-03T04:54:19.616Z,66.40
2018-09-03T04:55:19.706Z,62.70
2018-09-03T04:56:19.691Z,69.20
2018-09-03T04:57:19.728Z,75.30
2018-09-03T04:58:19.771Z,67.50
2018-09-03T04:59:19.808Z,64.40
2018-09-03T05:00:19.850Z,67.10
2018-09-03T05:01:19.886Z,68.70
2018-09-03T05:02:19.934Z,64.80
2018-09-03T05:03:19.964Z,64.60
2018-09-03T05:04:20.014Z,63.80
2018-09-03T05:05:20.116Z,65.20
2018-09-03T05:06:20.082Z,68.70
2018-09-03T05:07:20.122Z,60.10
2018-09-03T05:08:20.160Z,64.80
2018-09-03T05:09:20.200Z,61.50
2018-09-03T05:10:20.238Z,64.10
2018-09-03T05:11:20.279Z,59.20
2018-09-03T05:12:20.319Z,64.30
2018-09-03T05:13:20.357Z,55.30
2018-09-03T05:14:20.395Z,56.50
2018-09-03T05:15:20.436Z,57.90
2018-09-03T05:16:20.475Z,59.50
2018-09-03T05:17:20.513Z,55.60
2018-09-03T05:18:20.561Z,61.90
2018-09-03T05:19:20.592Z,52.70
2018-09-03T05:20:20.630Z,58.60
2018-09-03T05:21:20.672Z,59.70
2018-09-03T05:22:20.710Z,57.30
2018-09-03T05:23:20.748Z,56.90
2018-09-03T05:24:20.787Z,62.50
2018-09-03T05:25:20.836Z,60.70
2018-09-03T05:26:20.866Z,57.00
2018-09-03T05:27:20.906Z,55.80
2018-09-03T05:28:20.946Z,59.20
2018-09-03T05:29:20.984Z,56.40
2018-09-03T05:30:21.024Z,57.90
2018-09-03T05:31:21.169Z,63.00
2018-09-03T05:32:21.103Z,61.30
2018-09-03T05:33:21.141Z,70.00
2018-09-03T05:34:21.182Z,62.00
2018-09-03T05:35:21.222Z,63.40
2018-09-03T05:36:21.263Z,62.60
2018-09-03T05:37:21.300Z,64.10
2018-09-03T05:38:21.338Z,62.50
2018-09-03T05:39:21.378Z,61.60
2018-09-03T05:40:21.418Z,63.90
2018-09-03T05:41:21.457Z,57.60
2018-09-03T05:42:21.496Z,58.50
2018-09-03T05:43:21.760Z,62.70
2018-09-03T05:44:21.579Z,62.10
2018-09-03T05:45:21.613Z,56.30
2018-09-03T05:46:21.662Z,58.50
2018-09-03T05:47:21.697Z,53.30
2018-09-03T05:48:21.740Z,58.20
2018-09-03T05:49:21.773Z,59.00
2018-09-03T05:50:21.915Z,52.70
2018-09-03T05:51:21.855Z,57.20
2018-09-03T05:52:21.897Z,55.50
2018-09-03T05:53:21.934Z,52.70
2018-09-03T05:54:21.970Z,55.00
2018-09-03T05:55:22.009Z,52.20
2018-09-03T05:56:22.049Z,55.90
2018-09-03T05:57:22.094Z,53.50
2018-09-03T05:58:22.128Z,51.60
2018-09-03T05:59:22.169Z,50.70
2018-09-03T06:00:22.207Z,52.40
2018-09-03T06:01:22.250Z,49.90
2018-09-03T06:02:22.287Z,45.70
2018-09-03T06:03:22.327Z,44.10
2018-09-03T06:04:22.365Z,50.80
2018-09-03T06:05:22.405Z,50.00
2018-09-03T06:06:22.447Z,49.60
2018-09-03T06:07:22.487Z,50.80
2018-09-03T06:08:22.525Z,49.50
2018-09-03T06:09:22.571Z,49.50
2018-09-03T06:10:22.623Z,51.00
2018-09-03T06:11:22.645Z,50.50
2018-09-03T06:12:22.684Z,49.80
2018-09-03T06:13:22.723Z,54.20
2018-09-03T06:14:22.763Z,54.10
2018-09-03T06:15:22.804Z,50.70
2018-09-03T06:16:22.852Z,52.60
2018-09-03T06:17:22.885Z,47.90
2018-09-03T06:18:22.924Z,54.50
2018-09-03T06:19:22.963Z,49.00
2018-09-03T06:20:23.002Z,51.40
2018-09-03T06:21:23.042Z,51.40
2018-09-03T06:22:23.087Z,50.20
2018-09-03T06:23:23.124Z,50.30
2018-09-03T06:24:23.161Z,52.00
2018-09-03T06:25:23.208Z,49.90
2018-09-03T06:26:23.243Z,50.50
2018-09-03T06:27:23.281Z,48.30
2018-09-03T06:28:23.321Z,50.90
2018-09-03T06:29:23.362Z,47.10
2018-09-03T06:30:23.402Z,47.30
2018-09-03T06:31:23.442Z,42.70
2018-09-03T06:32:23.482Z,42.50
2018-09-03T06:33:23.522Z,46.40
2018-09-03T06:34:23.562Z,43.50
2018-09-03T06:35:23.604Z,46.90
2018-09-03T06:36:23.643Z,49.20
2018-09-03T06:37:23.685Z,41.80
2018-09-03T06:38:23.724Z,44.70
2018-09-03T06:39:23.767Z,44.20
2018-09-03T06:40:23.804Z,43.60
2018-09-03T06:41:23.844Z,40.20
2018-09-03T06:42:23.884Z,42.40
2018-09-03T06:43:23.925Z,42.10
2018-09-03T06:44:23.964Z,42.80
2018-09-03T06:45:24.007Z,47.40
2018-09-03T06:46:24.043Z,46.10
2018-09-03T06:47:24.085Z,46.00
2018-09-03T06:48:24.124Z,44.10
2018-09-03T06:49:24.165Z,39.50
2018-09-03T06:50:24.205Z,42.10
2018-09-03T06:51:24.244Z,42.00
2018-09-03T06:52:24.286Z,42.10
2018-09-03T06:53:24.389Z,44.00
2018-09-03T06:54:24.365Z,43.80
2018-09-03T06:55:24.405Z,40.80
2018-09-03T06:56:24.444Z,42.40
2018-09-03T06:57:24.486Z,39.20
2018-09-03T06:58:24.525Z,40.20
2018-09-03T06:59:24.620Z,40.60
2018-09-03T07:00:24.605Z,38.80
2018-09-03T07:01:24.647Z,41.00
2018-09-03T07:02:24.685Z,37.50
2018-09-03T07:03:24.726Z,41.40
2018-09-03T07:04:24.772Z,42.90
2018-09-03T07:05:24.810Z,42.60
2018-09-03T07:06:24.848Z,39.50
2018-09-03T07:07:24.888Z,41.30
2018-09-03T07:08:24.927Z,41.50
2018-09-03T07:09:24.969Z,44.10
2018-09-03T07:10:25.012Z,43.30
2018-09-03T07:11:25.049Z,42.10
2018-09-03T07:12:25.089Z,45.30
2018-09-03T07:13:25.129Z,41.30
2018-09-03T07:14:25.175Z,39.60
2018-09-03T07:15:25.210Z,39.50
2018-09-03T07:16:25.249Z,38.50
2018-09-03T07:17:25.290Z,39.80
2018-09-03T07:18:25.331Z,40.40
2018-09-03T07:19:25.372Z,42.40
2018-09-03T07:20:25.410Z,42.90
2018-09-03T07:21:25.451Z,34.90
2018-09-03T07:22:25.491Z,36.10
2018-09-03T07:23:25.534Z,38.20
2018-09-03T07:24:25.579Z,37.10
2018-09-03T07:25:25.613Z,38.30
2018-09-03T07:26:25.652Z,40.20
2018-09-03T07:27:25.692Z,42.20
2018-09-03T07:28:25.733Z,43.10
2018-09-03T07:29:25.774Z,38.10
2018-09-03T07:30:25.814Z,36.10
2018-09-03T07:31:25.869Z,38.00
2018-09-03T07:32:25.894Z,37.60
2018-09-03T07:33:25.936Z,37.40
2018-09-03T07:34:25.976Z,36.50
2018-09-03T07:35:26.039Z,36.60
2018-09-03T07:36:26.057Z,38.70
2018-09-03T07:37:26.105Z,39.50
2018-09-03T07:38:26.139Z,32.70
2018-09-03T07:39:26.181Z,35.70
2018-09-03T07:40:26.221Z,35.10
2018-09-03T07:41:26.259Z,35.80
2018-09-03T07:42:26.304Z,32.90
2018-09-03T07:43:26.341Z,34.60
2018-09-03T07:44:26.387Z,30.70
2018-09-03T07:45:26.423Z,31.00
2018-09-03T07:46:26.464Z,32.90
2018-09-03T07:47:26.521Z,30.90
2018-09-03T07:48:26.544Z,32.30
2018-09-03T07:49:26.585Z,31.90
2018-09-03T07:50:26.625Z,34.40
2018-09-03T07:51:26.667Z,35.70
2018-09-03T07:52:26.810Z,36.20
2018-09-03T07:53:26.747Z,34.00
2018-09-03T07:54:26.805Z,36.50
2018-09-03T07:55:26.829Z,35.80
2018-09-03T07:56:26.869Z,33.60
2018-09-03T07:57:26.910Z,34.30
2018-09-03T07:58:26.951Z,32.40
2018-09-03T07:59:27.009Z,32.50
2018-09-03T08:00:27.033Z,33.20
2018-09-03T08:01:27.073Z,34.20
2018-09-03T08:02:27.114Z,33.80
2018-09-03T08:03:27.159Z,36.70
2018-09-03T08:04:27.204Z,36.20
2018-09-03T08:05:27.253Z,34.90
2018-09-03T08:06:27.285Z,32.20
2018-09-03T08:07:27.381Z,35.00
2018-09-03T08:08:27.405Z,35.50
2018-09-03T08:09:27.411Z,34.80
2018-09-03T08:10:27.439Z,35.40
2018-09-03T08:11:27.480Z,36.40
2018-09-03T08:12:27.521Z,35.90
2018-09-03T08:13:27.562Z,36.90
2018-09-03T08:14:27.603Z,36.30
2018-09-03T08:15:27.644Z,36.30
2018-09-03T08:16:27.682Z,35.80
2018-09-03T08:17:27.724Z,36.40
2018-09-03T08:18:27.765Z,35.40
2018-09-03T08:19:27.806Z,34.30
2018-09-03T08:20:27.847Z,36.40
2018-09-03T08:21:27.887Z,40.20
2018-09-03T08:22:27.927Z,38.90
2018-09-03T08:23:27.968Z,38.10
2018-09-03T08:24:28.017Z,39.90
2018-09-03T08:25:28.052Z,43.50
2018-09-03T08:26:28.092Z,39.80
2018-09-03T08:27:28.145Z,40.00
2018-09-03T08:28:28.174Z,40.40
2018-09-03T08:29:28.214Z,41.60
2018-09-03T08:30:28.265Z,42.50
2018-09-03T08:31:28.298Z,37.10
2018-09-03T08:32:28.338Z,42.10
2018-09-03T08:33:28.378Z,38.00
2018-09-03T08:34:28.438Z,37.50
2018-09-03T08:35:28.465Z,36.90
2018-09-03T08:36:28.502Z,37.40
2018-09-03T08:37:28.541Z,36.50
2018-09-03T08:38:28.585Z,40.10
2018-09-03T08:39:28.626Z,39.60
2018-09-03T08:40:28.665Z,45.30
2018-09-03T08:41:28.706Z,45.50
2018-09-03T08:42:28.755Z,43.20
2018-09-03T08:43:28.790Z,41.30
2018-09-03T08:44:28.831Z,37.20
2018-09-03T08:45:28.871Z,42.80
2018-09-03T08:46:29.015Z,48.70
2018-09-03T08:47:28.956Z,45.80
2018-09-03T08:48:28.994Z,48.30
2018-09-03T08:49:29.036Z,47.40
2018-09-03T08:50:29.145Z,47.50
2018-09-03T08:51:29.118Z,47.30
2018-09-03T08:52:29.157Z,50.40
2018-09-03T08:53:29.205Z,47.50
2018-09-03T08:54:29.240Z,49.30
2018-09-03T08:55:29.283Z,51.20
2018-09-03T08:56:29.321Z,49.70
2018-09-03T08:57:29.365Z,50.80
2018-09-03T08:58:29.407Z,54.10
2018-09-03T08:59:29.444Z,59.60
2018-09-03T09:00:29.484Z,56.30
2018-09-03T09:01:29.541Z,58.10
2018-09-03T09:02:29.575Z,55.70
2018-09-03T09:03:29.609Z,55.30
2018-09-03T09:04:29.650Z,55.70
2018-09-03T09:05:29.690Z,55.20
2018-09-03T09:06:29.731Z,52.80
2018-09-03T09:07:29.771Z,57.00
2018-09-03T09:08:29.817Z,53.10
2018-09-03T09:09:29.855Z,51.50
2018-09-03T09:10:29.907Z,45.60
2018-09-03T09:11:29.945Z,48.10
2018-09-03T09:12:29.979Z,53.90
2018-09-03T09:13:30.029Z,48.80
2018-09-03T09:14:30.059Z,53.20
2018-09-03T09:15:30.101Z,46.90
2018-09-03T09:16:30.142Z,48.10
2018-09-03T09:17:30.223Z,52.10
2018-09-03T09:18:30.221Z,51.10
2018-09-03T09:19:30.263Z,51.60
2018-09-03T09:20:30.305Z,55.80
2018-09-03T09:21:30.344Z,51.70
2018-09-03T09:22:30.386Z,58.40
2018-09-03T09:23:30.428Z,54.30
2018-09-03T09:24:30.571Z,51.60
2018-09-03T09:25:30.508Z,48.80
2018-09-03T09:26:30.601Z,44.60
2018-09-03T09:27:30.592Z,41.30
2018-09-03T09:28:30.641Z,45.50
2018-09-03T09:29:30.674Z,42.40
2018-09-03T09:30:30.715Z,44.20
2018-09-03T09:31:30.757Z,46.70
2018-09-03T09:32:30.798Z,43.20
2018-09-03T09:33:30.869Z,44.20
2018-09-03T09:34:30.887Z,44.00
2018-09-03T09:35:30.920Z,43.30
2018-09-03T09:36:30.961Z,44.80
2018-09-03T09:37:31.002Z,44.60
2018-09-03T09:38:31.044Z,43.10
2018-09-03T09:39:31.086Z,40.10
2018-09-03T09:40:31.127Z,38.00
2018-09-03T09:41:31.175Z,35.20
2018-09-03T09:42:31.210Z,38.90
2018-09-03T09:43:31.252Z,34.70
2018-09-03T09:44:31.301Z,38.60
2018-09-03T09:45:31.332Z,37.60
2018-09-03T09:46:31.373Z,33.80
2018-09-03T09:47:31.416Z,32.60
2018-09-03T09:48:31.459Z,34.60
2018-09-03T09:49:31.497Z,34.00
2018-09-03T09:50:31.540Z,35.00
2018-09-03T09:51:31.590Z,36.50
2018-09-03T09:52:31.621Z,37.30
2018-09-03T09:53:31.666Z,35.60
2018-09-03T09:54:31.704Z,36.70
2018-09-03T09:55:31.746Z,35.70
2018-09-03T09:56:31.788Z,34.90
2018-09-03T09:57:31.830Z,36.50
2018-09-03T09:58:31.870Z,35.30
2018-09-03T09:59:31.922Z,35.50
2018-09-03T10:00:31.951Z,35.40
2018-09-03T10:01:31.996Z,35.50
2018-09-03T10:02:32.042Z,37.00
2018-09-03T10:03:32.078Z,36.60
2018-09-03T10:04:32.119Z,35.00
2018-09-03T10:05:32.160Z,37.30
2018-09-03T10:06:32.202Z,36.00
2018-09-03T10:07:32.241Z,35.10
2018-09-03T10:08:32.284Z,37.00
2018-09-03T10:09:32.325Z,35.90
2018-09-03T10:10:32.365Z,38.00
2018-09-03T10:11:32.408Z,36.60
2018-09-03T10:12:32.450Z,35.30
2018-09-03T10:13:32.594Z,36.60
2018-09-03T10:14:32.542Z,35.40
2018-09-03T10:15:32.575Z,36.40
2018-09-03T10:16:32.615Z,37.50
2018-09-03T10:17:32.661Z,34.30
2018-09-03T10:18:32.700Z,36.20
2018-09-03T10:19:32.739Z,35.00
2018-09-03T10:20:32.785Z,33.50
2018-09-03T10:21:32.891Z,36.40
2018-09-03T10:22:32.875Z,36.10
2018-09-03T10:23:32.904Z,32.90
2018-09-03T10:24:32.946Z,31.40
2018-09-03T10:25:32.988Z,37.80
2018-09-03T10:26:33.032Z,33.80
2018-09-03T10:27:33.078Z,31.00
2018-09-03T10:28:33.112Z,31.10
2018-09-03T10:29:33.153Z,28.50
2018-09-03T10:30:33.197Z,29.90
2018-09-03T10:31:33.239Z,27.00
2018-09-03T10:32:33.280Z,26.00
2018-09-03T10:33:33.321Z,27.10
2018-09-03T10:34:33.366Z,30.20
2018-09-03T10:35:33.405Z,26.30
2018-09-03T10:36:33.449Z,25.50
2018-09-03T10:37:33.498Z,24.90
2018-09-03T10:38:33.533Z,26.30
2018-09-03T10:39:33.582Z,27.30
2018-09-03T10:40:33.613Z,28.30
2018-09-03T10:41:33.652Z,27.40
2018-09-03T10:42:33.711Z,29.90
2018-09-03T10:43:33.736Z,29.50
2018-09-03T10:44:33.777Z,31.70
2018-09-03T10:45:33.817Z,28.70
2018-09-03T10:46:33.863Z,26.80
2018-09-03T10:47:34.005Z,28.10
2018-09-03T10:48:33.942Z,30.30
2018-09-03T10:49:33.983Z,29.90
2018-09-03T10:50:34.025Z,29.00
2018-09-03T10:51:34.075Z,33.40
2018-09-03T10:52:34.108Z,33.60
2018-09-03T10:53:34.150Z,29.60
2018-09-03T10:54:34.195Z,28.20
2018-09-03T10:55:34.231Z,27.10
2018-09-03T10:56:34.273Z,29.50
2018-09-03T10:57:34.316Z,28.80
2018-09-03T10:58:34.361Z,29.60
2018-09-03T10:59:34.399Z,32.80
2018-09-03T11:00:34.443Z,28.20
2018-09-03T11:01:34.480Z,31.40
2018-09-03T11:02:34.523Z,30.40
2018-09-03T11:03:34.565Z,30.30
2018-09-03T11:04:34.605Z,32.10
2018-09-03T11:05:34.651Z,31.80
2018-09-03T11:06:34.692Z,31.00
2018-09-03T11:07:34.733Z,31.00
2018-09-03T11:08:34.771Z,30.50
2018-09-03T11:09:34.821Z,32.40
2018-09-03T11:10:34.854Z,27.90
2018-09-03T11:11:34.896Z,28.50
2018-09-03T11:12:34.934Z,30.30
2018-09-03T11:13:34.976Z,27.20
2018-09-03T11:14:35.068Z,32.00
2018-09-03T11:15:35.059Z,30.30
2018-09-03T11:16:35.102Z,26.80
2018-09-03T11:17:35.142Z,30.00
2018-09-03T11:18:35.184Z,30.50
2018-09-03T11:19:35.235Z,27.40
2018-09-03T11:20:35.266Z,36.50
2018-09-03T11:21:35.530Z,34.40
2018-09-03T11:22:35.359Z,34.50
2018-09-03T11:23:35.391Z,35.30
2018-09-03T11:24:35.470Z,32.40
2018-09-03T11:25:35.473Z,29.90
2018-09-03T11:26:35.517Z,29.30
2018-09-03T11:27:35.561Z,29.10
2018-09-03T11:28:35.608Z,29.30
2018-09-03T11:29:35.638Z,33.00
2018-09-03T11:30:35.681Z,30.80
2018-09-03T11:31:35.731Z,29.80
2018-09-03T11:32:35.763Z,28.70
2018-09-03T11:33:35.814Z,29.30
2018-09-03T11:34:35.851Z,30.60
2018-09-03T11:35:35.888Z,30.70
2018-09-03T11:36:35.931Z,30.50
2018-09-03T11:37:35.971Z,28.00
2018-09-03T11:38:36.018Z,28.80
2018-09-03T11:39:36.060Z,29.00
2018-09-03T11:40:36.096Z,30.60
2018-09-03T11:41:36.137Z,26.90
2018-09-03T11:42:36.182Z,25.90
2018-09-03T11:43:36.218Z,29.70
2018-09-03T11:44:36.269Z,26.40
2018-09-03T11:45:36.303Z,28.50
2018-09-03T11:46:36.344Z,30.30
2018-09-03T11:47:36.397Z,28.60
2018-09-03T11:48:36.427Z,30.40
2018-09-03T11:49:36.467Z,25.90
2018-09-03T11:50:36.509Z,29.10
2018-09-03T11:51:36.553Z,28.40
2018-09-03T11:52:36.593Z,30.50
2018-09-03T11:53:36.643Z,29.80
2018-09-03T11:54:36.739Z,31.00
2018-09-03T11:55:36.718Z,30.30
2018-09-03T11:56:36.760Z,31.80
2018-09-03T11:57:36.802Z,27.90
2018-09-03T11:58:36.843Z,27.50
2018-09-03T11:59:36.897Z,28.70
2018-09-03T12:00:36.941Z,28.30
2018-09-03T12:01:36.968Z,30.90
2018-09-03T12:02:37.011Z,29.80
2018-09-03T12:03:37.051Z,31.10
2018-09-03T12:04:37.093Z,30.30
2018-09-03T12:05:37.134Z,30.70
2018-09-03T12:06:37.257Z,28.10
2018-09-03T12:07:37.218Z,27.70
2018-09-03T12:08:37.260Z,31.00
2018-09-03T12:09:37.300Z,31.10
2018-09-03T12:10:37.342Z,30.30
2018-09-03T12:11:37.383Z,30.60
2018-09-03T12:12:37.424Z,28.50
2018-09-03T12:13:37.465Z,28.30
2018-09-03T12:14:37.510Z,27.10
2018-09-03T12:15:37.560Z,29.50
2018-09-03T12:16:37.590Z,29.20
2018-09-03T12:17:37.638Z,32.00
2018-09-03T12:18:37.681Z,30.90
2018-09-03T12:19:37.715Z,30.70
2018-09-03T12:20:37.760Z,32.50
2018-09-03T12:21:37.800Z,29.90
2018-09-03T12:22:37.843Z,31.60
2018-09-03T12:23:37.883Z,29.60
2018-09-03T12:24:37.925Z,31.70
2018-09-03T12:25:37.978Z,33.80
2018-09-03T12:26:38.012Z,32.10
2018-09-03T12:27:38.062Z,31.40
2018-09-03T12:28:38.092Z,31.30
2018-09-03T12:29:38.133Z,30.20
2018-09-03T12:30:38.175Z,33.00
2018-09-03T12:31:38.216Z,33.60
2018-09-03T12:32:38.257Z,30.80
2018-09-03T12:33:38.302Z,29.60
2018-09-03T12:34:38.350Z,29.10
2018-09-03T12:35:38.389Z,28.40
2018-09-03T12:36:38.459Z,29.10
2018-09-03T12:37:38.467Z,28.10
2018-09-03T12:38:38.510Z,29.40
2018-09-03T12:39:38.552Z,30.90
2018-09-03T12:40:38.593Z,30.40
2018-09-03T12:41:38.634Z,30.00
2018-09-03T12:42:38.677Z,30.50
2018-09-03T12:43:38.728Z,27.90
2018-09-03T12:44:38.760Z,27.10
2018-09-03T12:45:38.812Z,29.50
2018-09-03T12:46:38.843Z,30.40
2018-09-03T12:47:38.888Z,28.90
2018-09-03T12:48:38.928Z,27.00
2018-09-03T12:49:38.988Z,28.80
2018-09-03T12:50:39.014Z,27.80
2018-09-03T12:51:39.062Z,29.10
2018-09-03T12:52:39.097Z,26.50